createdAt,value
2023-02-08T00:00:24.953Z,26.90
2023-02-08T00:02:53.464Z,25.50
2023-02-08T00:05:23.920Z,25.60
2023-02-08T00:07:51.736Z,29.90
2023-02-08T00:10:19.712Z,24.77
2023-02-08T00:12:47.468Z,21.50
2023-02-08T00:15:16.543Z,25.75
2023-02-08T00:17:44.162Z,20.70
2023-02-08T00:20:12.936Z,22.83
2023-02-08T00:22:40.793Z,23.48
2023-02-08T00:25:09.181Z,30.77
2023-02-08T00:27:37.284Z,24.33
2023-02-08T00:30:06.090Z,25.67
2023-02-08T00:32:35.297Z,26.77
2023-02-08T00:35:03.137Z,24.23
2023-02-08T00:37:30.932Z,25.35
2023-02-08T00:40:00.037Z,26.45
2023-02-08T00:42:27.747Z,26.75
2023-02-08T00:44:55.478Z,24.05
2023-02-08T00:47:23.193Z,19.70
2023-02-08T00:49:52.445Z,21.42
2023-02-08T00:52:20.488Z,21.23
2023-02-08T00:54:48.322Z,34.00
2023-02-08T00:57:16.093Z,27.38
2023-02-08T00:59:43.900Z,22.98
2023-02-08T01:02:11.826Z,20.45
2023-02-08T01:04:39.925Z,22.58
2023-02-08T01:07:12.318Z,26.58
2023-02-08T01:09:40.176Z,21.98
2023-02-08T01:12:07.954Z,24.52
2023-02-08T01:14:35.804Z,24.92
2023-02-08T01:17:03.516Z,25.48
2023-02-08T01:19:31.371Z,24.92
2023-02-08T01:21:59.107Z,25.00
2023-02-08T01:24:28.303Z,22.20
2023-02-08T01:26:56.202Z,27.90
2023-02-08T01:29:24.027Z,24.60
2023-02-08T01:31:51.835Z,29.25
2023-02-08T01:34:19.694Z,27.58
2023-02-08T01:36:50.396Z,25.00
2023-02-08T01:39:18.269Z,21.63
2023-02-08T01:41:47.520Z,23.35
2023-02-08T01:44:52.513Z,24.08
2023-02-08T01:47:20.213Z,25.20
2023-02-08T01:49:48.224Z,26.70
2023-02-08T01:52:19.361Z,27.63
2023-02-08T01:54:50.833Z,24.00
2023-02-08T01:57:21.001Z,24.55
2023-02-08T01:59:51.467Z,28.23
2023-02-08T02:02:21.303Z,29.67
2023-02-08T02:04:49.930Z,21.42
2023-02-08T02:07:18.517Z,24.13
2023-02-08T02:09:47.884Z,23.60
2023-02-08T02:12:15.867Z,29.33
2023-02-08T02:14:44.903Z,22.60
2023-02-08T02:17:13.091Z,23.05
2023-02-08T02:19:47.970Z,24.38
2023-02-08T02:22:35.955Z,29.58
2023-02-08T02:25:21.010Z,23.20
2023-02-08T02:28:11.170Z,22.33
2023-02-08T02:31:00.853Z,23.70
2023-02-08T02:33:41.572Z,28.45
2023-02-08T02:36:17.250Z,25.73
2023-02-08T02:38:52.687Z,35.00
2023-02-08T02:41:41.426Z,30.50
2023-02-08T02:44:16.024Z,26.38
2023-02-08T02:46:47.936Z,31.92
2023-02-08T02:49:19.897Z,30.13
2023-02-08T02:51:50.183Z,25.38
2023-02-08T02:54:19.851Z,25.00
2023-02-08T02:56:50.176Z,23.30
2023-02-08T02:59:18.011Z,33.30
2023-02-08T03:01:47.497Z,24.45
2023-02-08T03:04:18.114Z,27.33
2023-02-08T03:06:58.401Z,27.70
2023-02-08T03:09:50.421Z,24.85
2023-02-08T03:12:29.096Z,28.75
2023-02-08T03:14:59.735Z,29.02
2023-02-08T03:17:35.989Z,27.38
2023-02-08T03:20:08.803Z,31.40
2023-02-08T03:22:44.596Z,30.33
2023-02-08T03:25:18.192Z,31.52
2023-02-08T03:27:52.745Z,27.15
2023-02-08T03:30:23.444Z,32.15
2023-02-08T03:32:53.645Z,39.85
2023-02-08T03:35:25.137Z,26.88
2023-02-08T03:37:56.356Z,33.63
2023-02-08T03:40:25.344Z,28.83
2023-02-08T03:42:54.020Z,37.92
2023-02-08T03:45:25.024Z,31.27
2023-02-08T03:47:54.734Z,30.63
2023-02-08T03:50:24.433Z,35.90
2023-02-08T03:52:53.351Z,30.42
2023-02-08T03:55:23.084Z,33.67
2023-02-08T03:57:54.081Z,32.53
2023-02-08T04:00:22.746Z,30.02
2023-02-08T04:02:56.694Z,33.00
2023-02-08T04:05:26.159Z,33.17
2023-02-08T04:07:53.990Z,32.63
2023-02-08T04:10:21.756Z,32.83
2023-02-08T04:12:50.157Z,39.78
2023-02-08T04:15:18.310Z,34.58
2023-02-08T04:17:45.905Z,27.67
2023-02-08T04:20:13.573Z,29.10
2023-02-08T04:22:42.490Z,28.05
2023-02-08T04:25:10.117Z,30.80
2023-02-08T04:27:38.023Z,27.67
2023-02-08T04:30:06.522Z,33.83
2023-02-08T04:32:34.288Z,27.92
2023-02-08T04:35:01.904Z,35.83
2023-02-08T04:37:29.544Z,29.60
2023-02-08T04:39:58.581Z,34.00
2023-02-08T04:42:26.424Z,29.92
2023-02-08T04:44:54.013Z,35.55
2023-02-08T04:47:21.826Z,31.50
2023-02-08T04:49:49.483Z,32.42
2023-02-08T04:52:17.203Z,24.98
2023-02-08T04:54:44.868Z,31.08
2023-02-08T04:57:15.433Z,28.23
2023-02-08T04:59:43.111Z,29.92
2023-02-08T05:02:10.855Z,36.88
2023-02-08T05:04:38.529Z,31.40
2023-02-08T05:07:06.290Z,38.08
2023-02-08T05:09:33.956Z,31.48
2023-02-08T05:12:01.594Z,36.08
2023-02-08T05:14:30.638Z,31.63
2023-02-08T05:16:58.296Z,33.63
2023-02-08T05:19:25.990Z,20.00
2023-02-08T05:21:53.626Z,33.30
2023-02-08T05:24:21.370Z,33.58
2023-02-08T05:26:48.969Z,34.33
2023-02-08T05:29:16.689Z,33.65
2023-02-08T05:31:45.779Z,32.38
2023-02-08T05:34:13.484Z,34.55
2023-02-08T05:36:41.054Z,29.33
2023-02-08T05:39:08.671Z,31.63
2023-02-08T05:41:36.297Z,31.15
2023-02-08T05:44:04.007Z,34.10
2023-02-08T05:46:31.824Z,39.58
2023-02-08T05:49:00.831Z,35.80
2023-02-08T05:52:03.023Z,40.33
2023-02-08T05:56:58.196Z,37.83
2023-02-08T05:59:25.819Z,38.28
2023-02-08T06:01:53.486Z,40.17
2023-02-08T06:04:22.696Z,43.58
2023-02-08T06:06:50.436Z,30.25
2023-02-08T06:09:18.125Z,37.20
2023-02-08T06:11:45.842Z,32.25
2023-02-08T06:14:13.446Z,39.00
2023-02-08T06:16:41.153Z,35.72
2023-02-08T06:19:08.770Z,26.50
2023-02-08T06:21:37.716Z,34.75
2023-02-08T06:24:06.780Z,33.47
2023-02-08T06:26:34.548Z,34.33
2023-02-08T06:29:02.196Z,39.42
2023-02-08T06:31:29.878Z,33.25
2023-02-08T06:33:57.593Z,37.33
2023-02-08T06:36:25.236Z,37.47
2023-02-08T06:38:54.203Z,39.70
2023-02-08T06:41:21.755Z,28.48
2023-02-08T06:43:49.367Z,34.55
2023-02-08T06:46:16.933Z,36.10
2023-02-08T06:48:44.516Z,38.28
2023-02-08T06:51:12.076Z,28.40
2023-02-08T06:53:39.786Z,34.25
2023-02-08T06:56:08.921Z,35.63
2023-02-08T06:58:37.949Z,36.80
2023-02-08T07:01:05.895Z,36.88
2023-02-08T07:03:33.504Z,37.03
2023-02-08T07:06:05.505Z,41.00
2023-02-08T07:08:33.838Z,35.65
2023-02-08T07:11:01.491Z,32.17
2023-02-08T07:13:30.454Z,32.65
2023-02-08T07:15:58.074Z,36.00
2023-02-08T07:18:25.717Z,30.30
2023-02-08T07:20:53.345Z,40.55
2023-02-08T07:23:20.993Z,40.03
2023-02-08T07:25:58.348Z,42.08
2023-02-08T07:28:27.144Z,48.08
2023-02-08T07:30:56.258Z,35.80
2023-02-08T07:33:24.598Z,41.47
2023-02-08T07:35:52.642Z,31.67
2023-02-08T07:38:20.923Z,43.22
2023-02-08T07:40:48.720Z,33.47
2023-02-08T07:43:16.408Z,39.95
2023-02-08T07:45:44.076Z,38.70
2023-02-08T07:48:13.246Z,35.58
2023-02-08T07:50:41.063Z,39.55
2023-02-08T07:53:08.798Z,37.30
2023-02-08T07:55:36.437Z,40.60
2023-02-08T07:58:04.108Z,43.28
2023-02-08T08:00:31.779Z,30.80
2023-02-08T08:02:59.429Z,39.60
2023-02-08T08:05:28.535Z,33.03
2023-02-08T08:07:56.144Z,36.72
2023-02-08T08:10:23.762Z,47.47
2023-02-08T08:12:51.347Z,34.78
2023-02-08T08:15:19.200Z,36.65
2023-02-08T08:17:46.771Z,40.78
2023-02-08T08:20:14.414Z,45.30
2023-02-08T08:22:43.372Z,39.75
2023-02-08T08:25:10.994Z,39.60
2023-02-08T08:27:38.628Z,38.53
2023-02-08T08:30:07.955Z,32.88
2023-02-08T08:32:35.671Z,35.65
2023-02-08T08:35:03.275Z,36.42
2023-02-08T08:37:31.021Z,45.78
2023-02-08T08:40:00.068Z,45.40
2023-02-08T08:42:27.820Z,40.75
2023-02-08T08:44:55.642Z,34.38
2023-02-08T08:47:23.278Z,35.33
2023-02-08T08:49:50.894Z,36.67
2023-02-08T08:52:18.563Z,43.15
2023-02-08T08:54:46.162Z,32.80
2023-02-08T08:57:39.993Z,35.15
2023-02-08T09:00:08.421Z,35.80
2023-02-08T09:02:36.549Z,31.23
2023-02-08T09:05:05.456Z,35.03
2023-02-08T09:07:34.368Z,34.85
2023-02-08T09:10:01.969Z,30.60
2023-02-08T09:12:29.746Z,34.75
2023-02-08T09:14:58.789Z,28.60
2023-02-08T09:17:26.409Z,27.00
2023-02-08T09:19:54.157Z,35.30
2023-02-08T09:22:21.870Z,29.58
2023-02-08T09:24:49.568Z,37.05
2023-02-08T09:27:19.115Z,32.72
2023-02-08T09:29:46.860Z,37.95
2023-02-08T09:32:15.939Z,31.48
2023-02-08T09:34:43.567Z,36.90
2023-02-08T09:37:11.155Z,32.20
2023-02-08T09:39:38.813Z,34.30
2023-02-08T09:42:16.309Z,28.83
2023-02-08T09:44:54.558Z,30.98
2023-02-08T09:47:26.919Z,35.30
2023-02-08T09:49:58.857Z,31.63
2023-02-08T09:54:59.384Z,35.17
2023-02-08T09:57:30.573Z,22.85
2023-02-08T09:59:59.833Z,34.10
2023-02-08T10:02:30.483Z,33.00
2023-02-08T10:05:00.837Z,23.33
2023-02-08T10:07:29.690Z,30.27
2023-02-08T10:09:59.903Z,29.35
2023-02-08T10:12:36.619Z,24.95
2023-02-08T10:15:11.641Z,26.65
2023-02-08T10:18:06.226Z,27.45
2023-02-08T10:20:44.583Z,25.85
2023-02-08T10:23:24.275Z,30.85
2023-02-08T10:26:04.404Z,22.88
2023-02-08T10:28:43.745Z,26.52
2023-02-08T10:31:17.884Z,27.63
2023-02-08T10:33:54.112Z,27.17
2023-02-08T10:36:23.536Z,22.05
2023-02-08T10:38:53.234Z,26.48
2023-02-08T10:41:23.179Z,21.40
2023-02-08T10:43:53.169Z,24.42
2023-02-08T10:46:27.054Z,25.35
2023-02-08T10:49:04.012Z,25.83
2023-02-08T10:51:31.894Z,21.30
2023-02-08T10:53:59.667Z,32.00
2023-02-08T10:56:45.661Z,25.20
2023-02-08T10:59:19.988Z,29.33
2023-02-08T11:01:48.944Z,27.65
2023-02-08T11:04:18.494Z,25.77
2023-02-08T11:06:47.171Z,27.58
2023-02-08T11:09:26.519Z,28.77
2023-02-08T11:11:54.580Z,28.73
2023-02-08T11:14:35.051Z,23.77
2023-02-08T11:17:26.013Z,26.15
2023-02-08T11:19:55.066Z,25.13
2023-02-08T11:22:24.536Z,23.30
2023-02-08T11:24:57.711Z,32.15
2023-02-08T11:27:33.738Z,29.83
2023-02-08T11:30:21.144Z,22.45
2023-02-08T11:32:50.090Z,27.33
2023-02-08T11:35:23.868Z,29.45
2023-02-08T11:37:52.926Z,29.00
2023-02-08T11:40:23.451Z,24.33
2023-02-08T11:42:51.445Z,25.52
2023-02-08T11:45:22.470Z,24.55
2023-02-08T11:47:50.723Z,18.77
2023-02-08T11:50:26.451Z,27.98
2023-02-08T11:52:58.318Z,46.75
2023-02-08T11:55:28.219Z,22.92
2023-02-08T11:57:58.623Z,21.83
2023-02-08T12:00:28.335Z,27.63
2023-02-08T12:03:00.121Z,26.08
2023-02-08T12:05:36.340Z,28.35
2023-02-08T12:08:09.144Z,27.48
2023-02-08T12:11:00.920Z,29.63
2023-02-08T12:13:43.253Z,27.35
2023-02-08T12:18:55.381Z,22.38
2023-02-08T12:21:26.729Z,27.38
2023-02-08T12:23:57.660Z,24.65
2023-02-08T12:26:37.383Z,24.40
2023-02-08T12:29:14.662Z,25.45
2023-02-08T12:31:51.360Z,26.88
2023-02-08T12:34:23.638Z,24.00
2023-02-08T12:37:29.150Z,25.52
2023-02-08T12:40:18.958Z,27.88
2023-02-08T12:42:55.947Z,24.73
2023-02-08T12:45:45.397Z,28.58
2023-02-08T12:48:23.570Z,26.42
2023-02-08T12:50:54.546Z,25.08
2023-02-08T12:53:30.951Z,27.63
2023-02-08T12:56:00.003Z,22.88
2023-02-08T12:58:30.306Z,28.35
2023-02-08T13:01:02.067Z,25.75
2023-02-08T13:03:36.805Z,22.45
2023-02-08T13:06:07.179Z,25.98
2023-02-08T13:08:42.339Z,24.02
2023-02-08T13:11:20.016Z,27.55
2023-02-08T13:13:54.766Z,19.98
2023-02-08T13:16:25.282Z,22.15
2023-02-08T13:18:55.675Z,23.80
2023-02-08T13:21:26.639Z,20.67
2023-02-08T13:23:55.627Z,24.50
2023-02-08T13:26:26.862Z,27.92
2023-02-08T13:28:56.558Z,23.92
2023-02-08T13:31:26.149Z,25.55
2023-02-08T13:34:01.539Z,22.02
2023-02-08T13:36:31.625Z,27.42
2023-02-08T13:39:01.707Z,23.30
2023-02-08T13:41:30.624Z,26.17
2023-02-08T13:44:00.054Z,25.70
2023-02-08T13:46:30.036Z,26.27
2023-02-08T13:49:00.473Z,26.52
2023-02-08T13:52:02.287Z,38.08
2023-02-08T13:54:31.262Z,31.60
2023-02-08T13:56:58.994Z,34.25
2023-02-08T13:59:34.021Z,34.00
2023-02-08T14:02:28.968Z,39.53
2023-02-08T14:05:30.134Z,35.28
2023-02-08T14:07:58.939Z,46.25
2023-02-08T14:10:36.933Z,35.08
2023-02-08T14:13:08.518Z,39.55
2023-02-08T14:15:38.705Z,38.67
2023-02-08T14:18:17.345Z,33.30
2023-02-08T14:20:58.547Z,38.83
2023-02-08T14:23:30.226Z,48.10
2023-02-08T14:26:01.476Z,40.92
2023-02-08T14:28:32.312Z,40.40
2023-02-08T14:31:02.573Z,38.08
2023-02-08T14:33:33.436Z,38.83
2023-02-08T14:36:03.364Z,31.35
2023-02-08T14:38:50.545Z,41.42
2023-02-08T14:41:46.950Z,40.17
2023-02-08T14:44:54.273Z,37.65
2023-02-08T14:48:05.317Z,37.45
2023-02-08T14:50:50.621Z,36.00
2023-02-08T14:53:22.892Z,38.72
2023-02-08T14:55:52.304Z,42.50
2023-02-08T14:58:28.145Z,37.72
2023-02-08T15:00:57.734Z,32.70
2023-02-08T15:03:26.623Z,32.50
2023-02-08T15:06:08.091Z,34.88
2023-02-08T15:08:35.808Z,35.13
2023-02-08T15:11:03.461Z,36.03
2023-02-08T15:13:32.489Z,28.23
2023-02-08T15:16:01.607Z,33.50
2023-02-08T15:18:31.007Z,36.33
2023-02-08T15:21:03.602Z,29.48
2023-02-08T15:23:31.964Z,37.75
2023-02-08T15:26:01.761Z,29.35
2023-02-08T15:28:32.839Z,33.30
2023-02-08T15:31:03.477Z,38.07
2023-02-08T15:33:31.900Z,29.15
2023-02-08T15:36:02.454Z,31.35
2023-02-08T15:38:31.460Z,31.30
2023-02-08T15:41:05.300Z,27.15
2023-02-08T15:43:34.656Z,38.45
2023-02-08T15:46:03.925Z,29.00
2023-02-08T15:48:32.933Z,23.35
2023-02-08T15:51:01.246Z,30.55
2023-02-08T15:53:29.349Z,32.53
2023-02-08T15:56:02.493Z,28.58
2023-02-08T15:58:36.372Z,31.77
2023-02-08T16:01:05.468Z,28.38
2023-02-08T16:03:33.436Z,27.63
2023-02-08T16:06:02.904Z,30.50
2023-02-08T16:08:32.316Z,28.80
2023-02-08T16:11:01.707Z,27.25
2023-02-08T16:13:31.941Z,29.55
2023-02-08T16:16:17.471Z,23.52
2023-02-08T16:18:46.989Z,36.85
2023-02-08T16:21:27.258Z,30.40
2023-02-08T16:24:02.376Z,30.30
2023-02-08T16:26:32.985Z,28.52
2023-02-08T16:29:01.801Z,30.00
2023-02-08T16:31:33.308Z,30.38
2023-02-08T16:34:03.477Z,31.85
2023-02-08T16:36:36.509Z,35.97
2023-02-08T16:39:46.840Z,26.15
2023-02-08T16:42:33.785Z,29.15
2023-02-08T16:45:18.421Z,32.40
2023-02-08T16:47:49.970Z,28.33
2023-02-08T16:50:19.976Z,31.42
2023-02-08T16:52:49.854Z,33.78
2023-02-08T16:55:20.016Z,33.92
2023-02-08T16:57:49.454Z,26.48
2023-02-08T17:00:20.709Z,34.92
2023-02-08T17:02:49.833Z,35.80
2023-02-08T17:05:18.398Z,30.73
2023-02-08T17:07:46.243Z,35.22
2023-02-08T17:10:23.320Z,37.13
2023-02-08T17:12:50.930Z,30.60
2023-02-08T17:15:20.916Z,26.25
2023-02-08T17:17:49.926Z,35.90
2023-02-08T17:20:21.171Z,34.72
2023-02-08T17:22:48.879Z,29.33
2023-02-08T17:25:19.156Z,29.58
2023-02-08T17:27:48.804Z,32.08
2023-02-08T17:30:21.584Z,30.27
2023-02-08T17:32:51.129Z,34.70
2023-02-08T17:35:19.189Z,33.47
2023-02-08T17:37:47.780Z,37.42
2023-02-08T17:40:15.698Z,31.30
2023-02-08T17:42:43.355Z,41.38
2023-02-08T17:45:11.496Z,49.78
2023-02-08T17:47:41.649Z,48.97
2023-02-08T17:50:11.593Z,47.40
2023-02-08T17:52:39.537Z,40.92
2023-02-08T17:55:08.853Z,37.75
2023-02-08T17:57:39.328Z,29.90
2023-02-08T18:00:09.980Z,30.77
2023-02-08T18:02:37.626Z,34.28
2023-02-08T18:05:05.734Z,35.28
2023-02-08T18:07:34.714Z,36.72
2023-02-08T18:10:04.132Z,32.05
2023-02-08T18:12:31.798Z,36.90
2023-02-08T18:14:59.493Z,34.75
2023-02-08T18:17:27.096Z,36.22
2023-02-08T18:19:54.846Z,32.63
2023-02-08T18:22:24.991Z,34.47
2023-02-08T18:24:55.210Z,35.35
2023-02-08T18:27:24.924Z,31.95
2023-02-08T18:29:52.831Z,33.90
2023-02-08T18:32:22.034Z,36.90
2023-02-08T18:34:50.492Z,29.65
2023-02-08T18:37:18.462Z,33.20
2023-02-08T18:39:46.177Z,33.20
2023-02-08T18:42:15.584Z,29.90
2023-02-08T18:44:45.635Z,38.53
2023-02-08T18:47:14.166Z,36.40
2023-02-08T18:49:42.358Z,33.47
2023-02-08T18:52:11.110Z,33.80
2023-02-08T18:54:39.572Z,33.72
2023-02-08T18:57:09.608Z,36.08
2023-02-08T18:59:38.982Z,35.38
2023-02-08T19:02:08.046Z,30.05
2023-02-08T19:04:38.105Z,33.90
2023-02-08T19:07:05.975Z,33.28
2023-02-08T19:09:35.842Z,36.33
2023-02-08T19:12:03.524Z,30.52
2023-02-08T19:14:31.346Z,35.20
2023-02-08T19:17:00.712Z,35.35
2023-02-08T19:19:28.468Z,37.42
2023-02-08T19:21:56.177Z,38.88
2023-02-08T19:24:24.296Z,31.00
2023-02-08T19:26:51.984Z,32.97
2023-02-08T19:29:22.258Z,33.40
2023-02-08T19:31:50.852Z,34.78
2023-02-08T19:34:20.700Z,35.85
2023-02-08T19:36:51.622Z,28.77
2023-02-08T19:39:22.030Z,32.70
2023-02-08T19:41:50.129Z,30.83
2023-02-08T19:44:19.630Z,36.65
2023-02-08T19:46:49.190Z,33.33
2023-02-08T19:49:18.251Z,32.85
2023-02-08T19:51:47.541Z,38.88
2023-02-08T19:54:16.969Z,37.03
2023-02-08T19:56:44.806Z,35.10
2023-02-08T19:59:18.143Z,34.03
2023-02-08T20:01:46.065Z,31.63
2023-02-08T20:04:14.163Z,35.53
2023-02-08T20:06:42.846Z,34.90
2023-02-08T20:09:12.964Z,37.58
2023-02-08T20:11:56.444Z,32.72
2023-02-08T20:14:25.297Z,33.28
2023-02-08T20:16:53.139Z,35.95
2023-02-08T20:19:21.048Z,37.85
2023-02-08T20:21:48.825Z,36.63
2023-02-08T20:24:18.060Z,36.75
2023-02-08T20:26:47.410Z,31.33
2023-02-08T20:29:15.627Z,35.65
2023-02-08T20:31:46.673Z,36.20
2023-02-08T20:34:15.797Z,25.88
2023-02-08T20:36:51.955Z,34.35
2023-02-08T20:39:23.853Z,41.95
2023-02-08T20:41:51.575Z,40.60
2023-02-08T20:44:19.817Z,34.38
2023-02-08T20:46:47.715Z,41.47
2023-02-08T20:49:21.503Z,42.35
2023-02-08T20:51:52.836Z,38.17
2023-02-08T20:54:22.930Z,44.38
2023-02-08T20:56:52.728Z,41.28
2023-02-08T20:59:20.434Z,45.10
2023-02-08T21:01:48.257Z,39.03
2023-02-08T21:04:17.115Z,47.90
2023-02-08T21:06:46.027Z,44.85
2023-02-08T21:09:15.947Z,43.85
2023-02-08T21:11:44.241Z,45.45
2023-02-08T21:14:18.570Z,43.15
2023-02-08T21:16:47.696Z,46.08
2023-02-08T21:19:15.981Z,43.90
2023-02-08T21:21:43.961Z,43.83
2023-02-08T21:24:12.068Z,41.78
2023-02-08T21:26:40.054Z,40.20
2023-02-08T21:29:07.921Z,47.38
2023-02-08T21:31:37.710Z,46.10
2023-02-08T21:34:06.653Z,41.97
2023-02-08T21:36:34.961Z,43.63
2023-02-08T21:39:02.704Z,43.88
2023-02-08T21:41:32.011Z,46.03
2023-02-08T21:44:03.199Z,41.78
2023-02-08T21:46:31.668Z,47.30
2023-02-08T21:49:18.643Z,48.88
2023-02-08T21:52:03.975Z,54.13
2023-02-08T21:54:44.455Z,53.72
2023-02-08T21:57:15.874Z,49.65
2023-02-08T21:59:44.279Z,57.75
2023-02-08T22:02:14.791Z,57.97
2023-02-08T22:04:46.778Z,46.35
2023-02-08T22:07:13.858Z,51.70
2023-02-08T22:09:42.116Z,51.90
2023-02-08T22:12:14.530Z,49.65
2023-02-08T22:14:42.259Z,42.80
2023-02-08T22:17:10.238Z,48.85
2023-02-08T22:19:38.568Z,45.63
2023-02-08T22:22:08.307Z,34.40
2023-02-08T22:24:37.028Z,38.28
2023-02-08T22:27:04.862Z,45.30
2023-02-08T22:29:33.096Z,36.72
2023-02-08T22:32:01.119Z,40.10
2023-02-08T22:34:29.138Z,37.20
2023-02-08T22:36:56.974Z,51.90
2023-02-08T22:39:26.166Z,34.78
2023-02-08T22:41:53.959Z,40.97
2023-02-08T22:44:21.691Z,38.67
2023-02-08T22:46:49.513Z,45.15
2023-02-08T22:49:17.378Z,43.42
2023-02-08T22:51:45.144Z,40.08
2023-02-08T22:54:12.897Z,43.13
2023-02-08T22:56:42.013Z,43.03
2023-02-08T22:59:09.848Z,41.15
2023-02-08T23:01:38.209Z,42.38
2023-02-08T23:04:06.391Z,42.47
2023-02-08T23:06:34.767Z,41.85
2023-02-08T23:09:03.194Z,49.58
2023-02-08T23:11:30.985Z,44.25
2023-02-08T23:14:00.133Z,43.72
2023-02-08T23:16:27.894Z,43.65
2023-02-08T23:18:55.704Z,43.85
2023-02-08T23:21:23.458Z,37.63
2023-02-08T23:23:51.428Z,37.70
2023-02-08T23:26:20.984Z,41.17
2023-02-08T23:28:50.752Z,34.75
2023-02-08T23:31:20.864Z,37.10
2023-02-08T23:33:49.131Z,41.05
2023-02-08T23:36:18.571Z,42.70
2023-02-08T23:38:46.684Z,36.60
2023-02-08T23:41:16.742Z,43.60
2023-02-08T23:43:44.813Z,36.60
2023-02-08T23:46:16.052Z,39.00
2023-02-08T23:48:45.748Z,37.47
2023-02-08T23:51:13.499Z,39.40
2023-02-08T23:53:41.416Z,47.20
2023-02-08T23:56:14.321Z,44.55
2023-02-08T23:58:42.504Z,42.22
